sensor_id;sensor_type;location;lat;lon;timestamp;P1;durP1;ratioP1;P2;durP2;ratioP2
52284;SDS011;38238;53.304;6.606;2022-07-17T00:00:52;5.25;;;2.28;;
52284;SDS011;38238;53.304;6.606;2022-07-17T00:03:18;5.53;;;2.33;;
52284;SDS011;38238;53.304;6.606;2022-07-17T00:05:44;6.22;;;2.42;;
52284;SDS011;38238;53.304;6.606;2022-07-17T00:08:10;6.72;;;2.55;;
52284;SDS011;38238;53.304;6.606;2022-07-17T00:10:37;8.35;;;2.70;;
52284;SDS011;38238;53.304;6.606;2022-07-17T00:13:05;4.38;;;2.60;;
52284;SDS011;38238;53.304;6.606;2022-07-17T00:15:31;6.03;;;2.72;;
52284;SDS011;38238;53.304;6.606;2022-07-17T00:17:57;4.75;;;2.40;;
52284;SDS011;38238;53.304;6.606;2022-07-17T00:20:22;5.60;;;2.28;;
52284;SDS011;38238;53.304;6.606;2022-07-17T00:22:51;5.88;;;2.30;;
52284;SDS011;38238;53.304;6.606;2022-07-17T00:25:19;4.35;;;2.50;;
52284;SDS011;38238;53.304;6.606;2022-07-17T00:27:45;5.45;;;3.00;;
52284;SDS011;38238;53.304;6.606;2022-07-17T00:30:11;5.22;;;2.53;;
52284;SDS011;38238;53.304;6.606;2022-07-17T00:32:37;5.55;;;2.97;;
52284;SDS011;38238;53.304;6.606;2022-07-17T00:35:03;5.35;;;2.72;;
52284;SDS011;38238;53.304;6.606;2022-07-17T00:37:29;8.63;;;2.60;;
52284;SDS011;38238;53.304;6.606;2022-07-17T00:39:55;5.03;;;2.67;;
52284;SDS011;38238;53.304;6.606;2022-07-17T00:42:21;5.18;;;2.67;;
52284;SDS011;38238;53.304;6.606;2022-07-17T00:44:47;6.40;;;2.78;;
52284;SDS011;38238;53.304;6.606;2022-07-17T00:47:13;6.97;;;3.03;;
52284;SDS011;38238;53.304;6.606;2022-07-17T00:49:43;6.40;;;2.85;;
52284;SDS011;38238;53.304;6.606;2022-07-17T00:52:10;5.72;;;2.42;;
52284;SDS011;38238;53.304;6.606;2022-07-17T00:54:37;5.68;;;2.65;;
52284;SDS011;38238;53.304;6.606;2022-07-17T00:57:08;5.05;;;2.60;;
52284;SDS011;38238;53.304;6.606;2022-07-17T00:59:35;4.38;;;2.85;;
52284;SDS011;38238;53.304;6.606;2022-07-17T01:02:11;5.22;;;2.70;;
52284;SDS011;38238;53.304;6.606;2022-07-17T01:04:38;5.55;;;3.00;;
52284;SDS011;38238;53.304;6.606;2022-07-17T01:07:05;7.95;;;3.35;;
52284;SDS011;38238;53.304;6.606;2022-07-17T01:09:32;6.72;;;3.05;;
52284;SDS011;38238;53.304;6.606;2022-07-17T01:11:59;6.93;;;3.00;;
52284;SDS011;38238;53.304;6.606;2022-07-17T01:14:26;4.00;;;2.70;;
52284;SDS011;38238;53.304;6.606;2022-07-17T01:16:52;7.13;;;2.75;;
52284;SDS011;38238;53.304;6.606;2022-07-17T01:19:19;6.10;;;2.58;;
52284;SDS011;38238;53.304;6.606;2022-07-17T01:21:47;5.32;;;2.92;;
52284;SDS011;38238;53.304;6.606;2022-07-17T01:24:14;7.38;;;3.42;;
52284;SDS011;38238;53.304;6.606;2022-07-17T01:26:41;6.38;;;2.80;;
52284;SDS011;38238;53.304;6.606;2022-07-17T01:29:10;6.63;;;3.70;;
52284;SDS011;38238;53.304;6.606;2022-07-17T01:31:38;8.25;;;3.70;;
52284;SDS011;38238;53.304;6.606;2022-07-17T01:34:06;6.00;;;3.13;;
52284;SDS011;38238;53.304;6.606;2022-07-17T01:36:33;5.97;;;3.10;;
52284;SDS011;38238;53.304;6.606;2022-07-17T01:38:59;4.80;;;3.08;;
52284;SDS011;38238;53.304;6.606;2022-07-17T01:41:24;6.30;;;3.08;;
52284;SDS011;38238;53.304;6.606;2022-07-17T01:43:50;6.78;;;3.17;;
52284;SDS011;38238;53.304;6.606;2022-07-17T01:46:16;9.68;;;3.08;;
52284;SDS011;38238;53.304;6.606;2022-07-17T01:48:42;5.95;;;3.35;;
52284;SDS011;38238;53.304;6.606;2022-07-17T01:51:07;5.55;;;2.97;;
52284;SDS011;38238;53.304;6.606;2022-07-17T01:53:33;6.00;;;3.22;;
52284;SDS011;38238;53.304;6.606;2022-07-17T01:55:59;4.72;;;2.80;;
52284;SDS011;38238;53.304;6.606;2022-07-17T01:58:25;5.88;;;3.30;;
52284;SDS011;38238;53.304;6.606;2022-07-17T02:00:51;7.05;;;3.10;;
52284;SDS011;38238;53.304;6.606;2022-07-17T02:03:18;4.60;;;3.22;;
52284;SDS011;38238;53.304;6.606;2022-07-17T02:05:44;5.30;;;3.28;;
52284;SDS011;38238;53.304;6.606;2022-07-17T02:08:10;6.40;;;2.97;;
52284;SDS011;38238;53.304;6.606;2022-07-17T02:10:36;7.20;;;3.63;;
52284;SDS011;38238;53.304;6.606;2022-07-17T02:13:02;7.13;;;3.03;;
52284;SDS011;38238;53.304;6.606;2022-07-17T02:15:29;4.68;;;3.13;;
52284;SDS011;38238;53.304;6.606;2022-07-17T02:17:54;5.32;;;2.88;;
52284;SDS011;38238;53.304;6.606;2022-07-17T02:20:20;5.65;;;2.88;;
52284;SDS011;38238;53.304;6.606;2022-07-17T02:22:46;6.45;;;3.20;;
52284;SDS011;38238;53.304;6.606;2022-07-17T02:25:12;6.03;;;3.22;;
52284;SDS011;38238;53.304;6.606;2022-07-17T02:27:39;6.15;;;3.47;;
52284;SDS011;38238;53.304;6.606;2022-07-17T02:30:07;6.28;;;3.20;;
52284;SDS011;38238;53.304;6.606;2022-07-17T02:32:40;4.88;;;3.15;;
52284;SDS011;38238;53.304;6.606;2022-07-17T02:35:08;4.80;;;3.00;;
52284;SDS011;38238;53.304;6.606;2022-07-17T02:37:35;6.82;;;3.30;;
52284;SDS011;38238;53.304;6.606;2022-07-17T02:40:01;5.57;;;3.55;;
52284;SDS011;38238;53.304;6.606;2022-07-17T02:42:29;5.75;;;3.22;;
52284;SDS011;38238;53.304;6.606;2022-07-17T02:44:55;6.60;;;3.47;;
52284;SDS011;38238;53.304;6.606;2022-07-17T02:47:23;6.38;;;3.30;;
52284;SDS011;38238;53.304;6.606;2022-07-17T02:49:50;5.72;;;3.63;;
52284;SDS011;38238;53.304;6.606;2022-07-17T02:52:17;6.95;;;3.25;;
52284;SDS011;38238;53.304;6.606;2022-07-17T02:54:43;5.53;;;4.00;;
52284;SDS011;38238;53.304;6.606;2022-07-17T02:57:09;5.50;;;3.40;;
52284;SDS011;38238;53.304;6.606;2022-07-17T02:59:35;8.35;;;3.72;;
52284;SDS011;38238;53.304;6.606;2022-07-17T03:02:00;7.20;;;3.95;;
52284;SDS011;38238;53.304;6.606;2022-07-17T03:04:26;5.10;;;3.70;;
52284;SDS011;38238;53.304;6.606;2022-07-17T03:06:52;9.23;;;4.10;;
52284;SDS011;38238;53.304;6.606;2022-07-17T03:09:17;7.80;;;4.57;;
52284;SDS011;38238;53.304;6.606;2022-07-17T03:11:43;4.47;;;3.58;;
52284;SDS011;38238;53.304;6.606;2022-07-17T03:14:09;9.60;;;4.45;;
52284;SDS011;38238;53.304;6.606;2022-07-17T03:16:35;7.55;;;4.13;;
52284;SDS011;38238;53.304;6.606;2022-07-17T03:19:00;5.72;;;3.90;;
52284;SDS011;38238;53.304;6.606;2022-07-17T03:21:26;6.28;;;4.60;;
52284;SDS011;38238;53.304;6.606;2022-07-17T03:23:52;8.13;;;4.20;;
52284;SDS011;38238;53.304;6.606;2022-07-17T03:26:18;7.80;;;4.40;;
52284;SDS011;38238;53.304;6.606;2022-07-17T03:28:43;8.07;;;4.47;;
52284;SDS011;38238;53.304;6.606;2022-07-17T03:31:09;8.60;;;5.18;;
52284;SDS011;38238;53.304;6.606;2022-07-17T03:33:35;7.60;;;4.70;;
52284;SDS011;38238;53.304;6.606;2022-07-17T03:36:00;7.60;;;4.45;;
52284;SDS011;38238;53.304;6.606;2022-07-17T03:38:26;9.13;;;4.43;;
52284;SDS011;38238;53.304;6.606;2022-07-17T03:40:52;7.22;;;4.10;;
52284;SDS011;38238;53.304;6.606;2022-07-17T03:43:17;6.60;;;4.13;;
52284;SDS011;38238;53.304;6.606;2022-07-17T03:45:44;6.35;;;4.15;;
52284;SDS011;38238;53.304;6.606;2022-07-17T03:48:09;9.13;;;4.30;;
52284;SDS011;38238;53.304;6.606;2022-07-17T03:50:35;9.05;;;4.45;;
52284;SDS011;38238;53.304;6.606;2022-07-17T03:53:01;7.82;;;4.22;;
52284;SDS011;38238;53.304;6.606;2022-07-17T03:55:26;6.05;;;4.38;;
52284;SDS011;38238;53.304;6.606;2022-07-17T03:57:52;6.88;;;4.13;;
52284;SDS011;38238;53.304;6.606;2022-07-17T04:00:18;7.47;;;4.10;;
52284;SDS011;38238;53.304;6.606;2022-07-17T04:02:44;7.68;;;3.55;;
52284;SDS011;38238;53.304;6.606;2022-07-17T04:05:10;9.07;;;4.10;;
52284;SDS011;38238;53.304;6.606;2022-07-17T04:07:40;6.38;;;3.95;;
52284;SDS011;38238;53.304;6.606;2022-07-17T04:10:07;7.93;;;4.18;;
52284;SDS011;38238;53.304;6.606;2022-07-17T04:12:34;6.75;;;4.10;;
52284;SDS011;38238;53.304;6.606;2022-07-17T04:15:00;7.03;;;4.18;;
52284;SDS011;38238;53.304;6.606;2022-07-17T04:17:25;5.80;;;3.97;;
52284;SDS011;38238;53.304;6.606;2022-07-17T04:19:52;5.55;;;3.85;;
52284;SDS011;38238;53.304;6.606;2022-07-17T04:22:18;7.85;;;3.85;;
52284;SDS011;38238;53.304;6.606;2022-07-17T04:24:43;6.55;;;3.78;;
52284;SDS011;38238;53.304;6.606;2022-07-17T04:27:10;6.45;;;4.05;;
52284;SDS011;38238;53.304;6.606;2022-07-17T04:29:36;6.13;;;3.97;;
52284;SDS011;38238;53.304;6.606;2022-07-17T04:32:02;7.47;;;4.22;;
52284;SDS011;38238;53.304;6.606;2022-07-17T04:34:28;7.45;;;3.80;;
52284;SDS011;38238;53.304;6.606;2022-07-17T04:36:54;5.68;;;3.70;;
52284;SDS011;38238;53.304;6.606;2022-07-17T04:39:20;7.70;;;3.78;;
52284;SDS011;38238;53.304;6.606;2022-07-17T04:41:46;8.05;;;3.60;;
52284;SDS011;38238;53.304;6.606;2022-07-17T04:44:12;6.80;;;3.85;;
52284;SDS011;38238;53.304;6.606;2022-07-17T04:46:38;6.97;;;3.40;;
52284;SDS011;38238;53.304;6.606;2022-07-17T04:49:03;5.78;;;3.50;;
52284;SDS011;38238;53.304;6.606;2022-07-17T04:51:29;6.97;;;3.53;;
52284;SDS011;38238;53.304;6.606;2022-07-17T04:53:55;5.35;;;3.22;;
52284;SDS011;38238;53.304;6.606;2022-07-17T04:56:21;6.90;;;3.92;;
52284;SDS011;38238;53.304;6.606;2022-07-17T04:58:47;8.57;;;3.65;;
52284;SDS011;38238;53.304;6.606;2022-07-17T05:01:12;6.75;;;3.53;;
52284;SDS011;38238;53.304;6.606;2022-07-17T05:03:38;4.28;;;3.00;;
52284;SDS011;38238;53.304;6.606;2022-07-17T05:06:04;6.10;;;3.30;;
52284;SDS011;38238;53.304;6.606;2022-07-17T05:08:30;6.88;;;3.33;;
52284;SDS011;38238;53.304;6.606;2022-07-17T05:10:56;7.35;;;3.00;;
52284;SDS011;38238;53.304;6.606;2022-07-17T05:13:22;6.90;;;3.55;;
52284;SDS011;38238;53.304;6.606;2022-07-17T05:15:48;7.13;;;3.38;;
52284;SDS011;38238;53.304;6.606;2022-07-17T05:18:14;5.57;;;2.83;;
52284;SDS011;38238;53.304;6.606;2022-07-17T05:20:40;4.20;;;2.60;;
52284;SDS011;38238;53.304;6.606;2022-07-17T05:23:06;10.02;;;3.17;;
52284;SDS011;38238;53.304;6.606;2022-07-17T05:25:31;5.85;;;2.95;;
52284;SDS011;38238;53.304;6.606;2022-07-17T05:27:57;6.43;;;2.72;;
52284;SDS011;38238;53.304;6.606;2022-07-17T05:30:23;5.00;;;2.58;;
52284;SDS011;38238;53.304;6.606;2022-07-17T05:32:49;5.22;;;2.63;;
52284;SDS011;38238;53.304;6.606;2022-07-17T05:35:15;7.35;;;2.95;;
52284;SDS011;38238;53.304;6.606;2022-07-17T05:37:41;6.55;;;3.00;;
52284;SDS011;38238;53.304;6.606;2022-07-17T05:40:07;5.22;;;2.50;;
52284;SDS011;38238;53.304;6.606;2022-07-17T05:42:33;6.47;;;2.67;;
52284;SDS011;38238;53.304;6.606;2022-07-17T05:44:59;8.95;;;2.70;;
52284;SDS011;38238;53.304;6.606;2022-07-17T05:47:25;5.75;;;2.95;;
52284;SDS011;38238;53.304;6.606;2022-07-17T05:49:50;5.72;;;3.00;;
52284;SDS011;38238;53.304;6.606;2022-07-17T05:52:16;7.35;;;2.65;;
52284;SDS011;38238;53.304;6.606;2022-07-17T05:54:42;5.28;;;2.70;;
52284;SDS011;38238;53.304;6.606;2022-07-17T05:57:07;5.22;;;2.95;;
52284;SDS011;38238;53.304;6.606;2022-07-17T05:59:33;5.38;;;2.55;;
52284;SDS011;38238;53.304;6.606;2022-07-17T06:01:59;6.45;;;2.88;;
52284;SDS011;38238;53.304;6.606;2022-07-17T06:04:25;5.22;;;2.45;;
52284;SDS011;38238;53.304;6.606;2022-07-17T06:06:51;5.82;;;2.50;;
52284;SDS011;38238;53.304;6.606;2022-07-17T06:09:17;4.63;;;2.67;;
52284;SDS011;38238;53.304;6.606;2022-07-17T06:11:43;5.15;;;2.50;;
52284;SDS011;38238;53.304;6.606;2022-07-17T06:14:09;6.80;;;2.97;;
52284;SDS011;38238;53.304;6.606;2022-07-17T06:16:34;7.00;;;2.63;;
52284;SDS011;38238;53.304;6.606;2022-07-17T06:19:00;4.47;;;2.45;;
52284;SDS011;38238;53.304;6.606;2022-07-17T06:21:26;8.18;;;2.97;;
52284;SDS011;38238;53.304;6.606;2022-07-17T06:23:51;6.97;;;2.45;;
52284;SDS011;38238;53.304;6.606;2022-07-17T06:26:17;7.28;;;2.40;;
52284;SDS011;38238;53.304;6.606;2022-07-17T06:28:43;5.10;;;2.70;;
52284;SDS011;38238;53.304;6.606;2022-07-17T06:31:09;5.78;;;2.92;;
52284;SDS011;38238;53.304;6.606;2022-07-17T06:33:34;7.65;;;3.03;;
52284;SDS011;38238;53.304;6.606;2022-07-17T06:36:01;6.28;;;2.63;;
52284;SDS011;38238;53.304;6.606;2022-07-17T06:38:28;6.25;;;2.50;;
52284;SDS011;38238;53.304;6.606;2022-07-17T06:40:53;5.35;;;2.53;;
52284;SDS011;38238;53.304;6.606;2022-07-17T06:43:19;7.13;;;2.38;;
52284;SDS011;38238;53.304;6.606;2022-07-17T06:45:45;7.95;;;2.20;;
52284;SDS011;38238;53.304;6.606;2022-07-17T06:48:11;6.57;;;2.60;;
52284;SDS011;38238;53.304;6.606;2022-07-17T06:50:36;3.75;;;1.90;;
52284;SDS011;38238;53.304;6.606;2022-07-17T06:53:02;6.28;;;2.38;;
52284;SDS011;38238;53.304;6.606;2022-07-17T06:55:28;7.00;;;2.30;;
52284;SDS011;38238;53.304;6.606;2022-07-17T06:57:54;5.03;;;2.00;;
52284;SDS011;38238;53.304;6.606;2022-07-17T07:00:19;4.03;;;2.22;;
52284;SDS011;38238;53.304;6.606;2022-07-17T07:02:45;10.73;;;2.33;;
52284;SDS011;38238;53.304;6.606;2022-07-17T07:05:11;7.75;;;2.03;;
52284;SDS011;38238;53.304;6.606;2022-07-17T07:07:36;5.95;;;2.05;;
52284;SDS011;38238;53.304;6.606;2022-07-17T07:10:02;4.88;;;1.98;;
52284;SDS011;38238;53.304;6.606;2022-07-17T07:12:28;6.03;;;1.73;;
52284;SDS011;38238;53.304;6.606;2022-07-17T07:14:54;4.63;;;2.20;;
52284;SDS011;38238;53.304;6.606;2022-07-17T07:17:20;5.13;;;2.15;;
52284;SDS011;38238;53.304;6.606;2022-07-17T07:19:46;5.13;;;2.17;;
52284;SDS011;38238;53.304;6.606;2022-07-17T07:22:11;6.13;;;2.15;;
52284;SDS011;38238;53.304;6.606;2022-07-17T07:24:37;5.38;;;1.90;;
52284;SDS011;38238;53.304;6.606;2022-07-17T07:27:03;4.97;;;1.95;;
52284;SDS011;38238;53.304;6.606;2022-07-17T07:29:28;4.00;;;1.88;;
52284;SDS011;38238;53.304;6.606;2022-07-17T07:31:54;6.50;;;2.20;;
52284;SDS011;38238;53.304;6.606;2022-07-17T07:34:20;6.60;;;2.17;;
52284;SDS011;38238;53.304;6.606;2022-07-17T07:36:46;3.92;;;1.75;;
52284;SDS011;38238;53.304;6.606;2022-07-17T07:39:12;4.88;;;1.80;;
52284;SDS011;38238;53.304;6.606;2022-07-17T07:41:38;3.38;;;1.77;;
52284;SDS011;38238;53.304;6.606;2022-07-17T07:44:03;7.35;;;2.00;;
52284;SDS011;38238;53.304;6.606;2022-07-17T07:46:29;4.82;;;1.77;;
52284;SDS011;38238;53.304;6.606;2022-07-17T07:48:55;5.00;;;1.70;;
52284;SDS011;38238;53.304;6.606;2022-07-17T07:51:21;4.85;;;1.90;;
52284;SDS011;38238;53.304;6.606;2022-07-17T07:53:46;4.75;;;2.30;;
52284;SDS011;38238;53.304;6.606;2022-07-17T07:56:12;6.85;;;1.92;;
52284;SDS011;38238;53.304;6.606;2022-07-17T07:58:38;6.97;;;2.00;;
52284;SDS011;38238;53.304;6.606;2022-07-17T08:01:04;4.43;;;1.85;;
52284;SDS011;38238;53.304;6.606;2022-07-17T08:03:29;5.32;;;2.10;;
52284;SDS011;38238;53.304;6.606;2022-07-17T08:05:55;7.55;;;2.03;;
52284;SDS011;38238;53.304;6.606;2022-07-17T08:08:21;6.53;;;1.98;;
52284;SDS011;38238;53.304;6.606;2022-07-17T08:10:46;4.35;;;1.65;;
52284;SDS011;38238;53.304;6.606;2022-07-17T08:13:12;3.60;;;1.80;;
52284;SDS011;38238;53.304;6.606;2022-07-17T08:15:38;4.15;;;1.80;;
52284;SDS011;38238;53.304;6.606;2022-07-17T08:18:04;4.82;;;1.95;;
52284;SDS011;38238;53.304;6.606;2022-07-17T08:20:30;7.03;;;1.65;;
52284;SDS011;38238;53.304;6.606;2022-07-17T08:22:56;6.65;;;1.92;;
52284;SDS011;38238;53.304;6.606;2022-07-17T08:25:21;7.00;;;1.70;;
52284;SDS011;38238;53.304;6.606;2022-07-17T08:27:47;4.65;;;1.80;;
52284;SDS011;38238;53.304;6.606;2022-07-17T08:30:13;5.35;;;2.25;;
52284;SDS011;38238;53.304;6.606;2022-07-17T08:32:40;6.22;;;2.35;;
52284;SDS011;38238;53.304;6.606;2022-07-17T08:35:06;4.20;;;1.95;;
52284;SDS011;38238;53.304;6.606;2022-07-17T08:37:51;5.28;;;2.00;;
52284;SDS011;38238;53.304;6.606;2022-07-17T08:40:25;6.30;;;1.80;;
52284;SDS011;38238;53.304;6.606;2022-07-17T08:42:53;6.20;;;1.67;;
52284;SDS011;38238;53.304;6.606;2022-07-17T08:45:20;3.80;;;1.60;;
52284;SDS011;38238;53.304;6.606;2022-07-17T08:47:46;5.22;;;2.10;;
52284;SDS011;38238;53.304;6.606;2022-07-17T08:50:14;4.13;;;1.63;;
52284;SDS011;38238;53.304;6.606;2022-07-17T08:52:40;3.75;;;1.65;;
52284;SDS011;38238;53.304;6.606;2022-07-17T08:55:08;5.00;;;1.77;;
52284;SDS011;38238;53.304;6.606;2022-07-17T08:57:38;6.10;;;1.60;;
52284;SDS011;38238;53.304;6.606;2022-07-17T09:00:05;5.07;;;1.52;;
52284;SDS011;38238;53.304;6.606;2022-07-17T09:02:32;5.40;;;1.60;;
52284;SDS011;38238;53.304;6.606;2022-07-17T09:04:57;5.07;;;1.67;;
52284;SDS011;38238;53.304;6.606;2022-07-17T09:07:23;5.18;;;1.50;;
52284;SDS011;38238;53.304;6.606;2022-07-17T09:09:52;4.75;;;1.30;;
52284;SDS011;38238;53.304;6.606;2022-07-17T09:12:28;3.92;;;1.30;;
52284;SDS011;38238;53.304;6.606;2022-07-17T09:14:55;6.45;;;1.67;;
52284;SDS011;38238;53.304;6.606;2022-07-17T09:17:21;6.38;;;1.63;;
52284;SDS011;38238;53.304;6.606;2022-07-17T09:19:47;4.75;;;1.60;;
52284;SDS011;38238;53.304;6.606;2022-07-17T09:22:24;6.72;;;1.50;;
52284;SDS011;38238;53.304;6.606;2022-07-17T09:24:56;4.38;;;1.70;;
52284;SDS011;38238;53.304;6.606;2022-07-17T09:29:54;3.95;;;1.48;;
52284;SDS011;38238;53.304;6.606;2022-07-17T09:32:20;5.25;;;1.52;;
52284;SDS011;38238;53.304;6.606;2022-07-17T09:34:48;3.90;;;1.33;;
52284;SDS011;38238;53.304;6.606;2022-07-17T09:37:15;3.33;;;1.52;;
52284;SDS011;38238;53.304;6.606;2022-07-17T09:39:41;4.00;;;1.30;;
52284;SDS011;38238;53.304;6.606;2022-07-17T09:42:07;3.72;;;1.60;;
52284;SDS011;38238;53.304;6.606;2022-07-17T09:44:34;4.00;;;1.40;;
52284;SDS011;38238;53.304;6.606;2022-07-17T09:47:03;4.32;;;1.58;;
52284;SDS011;38238;53.304;6.606;2022-07-17T09:49:29;3.58;;;1.50;;
52284;SDS011;38238;53.304;6.606;2022-07-17T09:51:54;3.53;;;1.65;;
52284;SDS011;38238;53.304;6.606;2022-07-17T09:54:21;4.55;;;1.50;;
52284;SDS011;38238;53.304;6.606;2022-07-17T09:56:49;3.60;;;1.33;;
52284;SDS011;38238;53.304;6.606;2022-07-17T09:59:15;4.70;;;1.70;;
52284;SDS011;38238;53.304;6.606;2022-07-17T10:01:43;5.15;;;1.58;;
52284;SDS011;38238;53.304;6.606;2022-07-17T10:04:14;6.10;;;1.63;;
52284;SDS011;38238;53.304;6.606;2022-07-17T10:06:43;4.20;;;1.40;;
52284;SDS011;38238;53.304;6.606;2022-07-17T10:09:09;7.53;;;1.60;;
52284;SDS011;38238;53.304;6.606;2022-07-17T10:11:39;3.00;;;1.33;;
52284;SDS011;38238;53.304;6.606;2022-07-17T10:14:11;3.10;;;1.63;;
52284;SDS011;38238;53.304;6.606;2022-07-17T10:16:38;3.13;;;1.40;;
52284;SDS011;38238;53.304;6.606;2022-07-17T10:19:22;6.00;;;1.70;;
52284;SDS011;38238;53.304;6.606;2022-07-17T10:21:59;3.72;;;1.30;;
52284;SDS011;38238;53.304;6.606;2022-07-17T10:24:29;4.15;;;1.27;;
52284;SDS011;38238;53.304;6.606;2022-07-17T10:26:55;3.03;;;1.58;;
52284;SDS011;38238;53.304;6.606;2022-07-17T10:29:32;5.07;;;1.67;;
52284;SDS011;38238;53.304;6.606;2022-07-17T10:32:07;7.43;;;1.63;;
52284;SDS011;38238;53.304;6.606;2022-07-17T10:34:46;6.38;;;1.70;;
52284;SDS011;38238;53.304;6.606;2022-07-17T10:37:17;4.90;;;1.60;;
52284;SDS011;38238;53.304;6.606;2022-07-17T10:42:41;4.50;;;1.70;;
52284;SDS011;38238;53.304;6.606;2022-07-17T10:45:32;3.33;;;1.58;;
52284;SDS011;38238;53.304;6.606;2022-07-17T10:48:32;4.50;;;1.58;;
52284;SDS011;38238;53.304;6.606;2022-07-17T10:50:52;3.60;;;1.88;;
52284;SDS011;38238;53.304;6.606;2022-07-17T10:53:21;3.13;;;1.30;;
52284;SDS011;38238;53.304;6.606;2022-07-17T10:55:56;2.78;;;1.40;;
52284;SDS011;38238;53.304;6.606;2022-07-17T11:03:23;3.85;;;1.50;;
52284;SDS011;38238;53.304;6.606;2022-07-17T11:05:48;2.70;;;1.30;;
52284;SDS011;38238;53.304;6.606;2022-07-17T11:08:14;4.95;;;1.40;;
52284;SDS011;38238;53.304;6.606;2022-07-17T11:10:40;5.30;;;1.40;;
52284;SDS011;38238;53.304;6.606;2022-07-17T11:13:15;3.30;;;1.70;;
52284;SDS011;38238;53.304;6.606;2022-07-17T11:15:42;3.28;;;1.30;;
52284;SDS011;38238;53.304;6.606;2022-07-17T11:18:10;1.95;;;0.95;;
52284;SDS011;38238;53.304;6.606;2022-07-17T11:20:50;3.53;;;1.30;;
52284;SDS011;38238;53.304;6.606;2022-07-17T11:23:24;4.72;;;1.50;;
52284;SDS011;38238;53.304;6.606;2022-07-17T11:25:51;4.15;;;1.50;;
52284;SDS011;38238;53.304;6.606;2022-07-17T11:28:26;3.42;;;1.30;;
52284;SDS011;38238;53.304;6.606;2022-07-17T11:31:03;4.00;;;1.50;;
52284;SDS011;38238;53.304;6.606;2022-07-17T11:33:53;3.55;;;1.75;;
52284;SDS011;38238;53.304;6.606;2022-07-17T11:36:25;3.15;;;1.45;;
52284;SDS011;38238;53.304;6.606;2022-07-17T11:38:53;3.05;;;1.40;;
52284;SDS011;38238;53.304;6.606;2022-07-17T11:41:19;6.72;;;1.58;;
52284;SDS011;38238;53.304;6.606;2022-07-17T11:43:45;4.05;;;1.92;;
52284;SDS011;38238;53.304;6.606;2022-07-17T11:46:12;4.03;;;1.60;;
52284;SDS011;38238;53.304;6.606;2022-07-17T11:48:42;4.40;;;1.77;;
52284;SDS011;38238;53.304;6.606;2022-07-17T11:51:09;2.92;;;1.55;;
52284;SDS011;38238;53.304;6.606;2022-07-17T11:53:35;3.25;;;1.42;;
52284;SDS011;38238;53.304;6.606;2022-07-17T11:56:02;3.50;;;1.60;;
52284;SDS011;38238;53.304;6.606;2022-07-17T11:58:39;5.57;;;1.60;;
52284;SDS011;38238;53.304;6.606;2022-07-17T12:01:06;3.78;;;1.50;;
52284;SDS011;38238;53.304;6.606;2022-07-17T12:03:32;4.00;;;1.80;;
52284;SDS011;38238;53.304;6.606;2022-07-17T12:05:58;5.43;;;1.48;;
52284;SDS011;38238;53.304;6.606;2022-07-17T12:08:24;4.40;;;1.67;;
52284;SDS011;38238;53.304;6.606;2022-07-17T12:10:59;3.35;;;1.60;;
52284;SDS011;38238;53.304;6.606;2022-07-17T12:13:47;3.72;;;1.45;;
52284;SDS011;38238;53.304;6.606;2022-07-17T12:16:20;3.88;;;1.90;;
52284;SDS011;38238;53.304;6.606;2022-07-17T12:24:25;3.70;;;1.73;;
52284;SDS011;38238;53.304;6.606;2022-07-17T12:26:51;2.70;;;1.67;;
52284;SDS011;38238;53.304;6.606;2022-07-17T12:29:18;3.67;;;1.75;;
52284;SDS011;38238;53.304;6.606;2022-07-17T12:31:44;3.90;;;1.70;;
52284;SDS011;38238;53.304;6.606;2022-07-17T12:34:10;4.15;;;1.73;;
52284;SDS011;38238;53.304;6.606;2022-07-17T12:36:36;3.53;;;1.90;;
52284;SDS011;38238;53.304;6.606;2022-07-17T12:39:02;3.25;;;1.75;;
52284;SDS011;38238;53.304;6.606;2022-07-17T12:41:28;3.80;;;2.08;;
52284;SDS011;38238;53.304;6.606;2022-07-17T12:43:53;3.92;;;1.70;;
52284;SDS011;38238;53.304;6.606;2022-07-17T12:46:19;4.57;;;2.03;;
52284;SDS011;38238;53.304;6.606;2022-07-17T12:48:45;3.72;;;1.90;;
52284;SDS011;38238;53.304;6.606;2022-07-17T12:51:11;3.33;;;1.90;;
52284;SDS011;38238;53.304;6.606;2022-07-17T12:53:38;3.72;;;2.05;;
52284;SDS011;38238;53.304;6.606;2022-07-17T12:56:05;3.60;;;2.00;;
52284;SDS011;38238;53.304;6.606;2022-07-17T12:58:31;3.53;;;1.80;;
52284;SDS011;38238;53.304;6.606;2022-07-17T13:00:57;4.72;;;2.05;;
52284;SDS011;38238;53.304;6.606;2022-07-17T13:03:23;3.58;;;2.00;;
52284;SDS011;38238;53.304;6.606;2022-07-17T13:05:49;4.35;;;2.28;;
52284;SDS011;38238;53.304;6.606;2022-07-17T13:08:15;5.65;;;2.17;;
52284;SDS011;38238;53.304;6.606;2022-07-17T13:10:40;3.75;;;2.17;;
52284;SDS011;38238;53.304;6.606;2022-07-17T13:13:06;4.13;;;2.20;;
52284;SDS011;38238;53.304;6.606;2022-07-17T13:15:33;5.03;;;2.30;;
52284;SDS011;38238;53.304;6.606;2022-07-17T13:17:58;4.75;;;2.25;;
52284;SDS011;38238;53.304;6.606;2022-07-17T13:20:25;4.22;;;2.08;;
52284;SDS011;38238;53.304;6.606;2022-07-17T13:22:52;4.30;;;2.38;;
52284;SDS011;38238;53.304;6.606;2022-07-17T13:25:18;5.20;;;2.58;;
52284;SDS011;38238;53.304;6.606;2022-07-17T13:27:43;4.95;;;2.90;;
52284;SDS011;38238;53.304;6.606;2022-07-17T13:30:09;4.22;;;2.42;;
52284;SDS011;38238;53.304;6.606;2022-07-17T13:32:36;5.13;;;2.60;;
52284;SDS011;38238;53.304;6.606;2022-07-17T13:35:02;4.63;;;2.30;;
52284;SDS011;38238;53.304;6.606;2022-07-17T13:37:29;5.25;;;2.28;;
52284;SDS011;38238;53.304;6.606;2022-07-17T13:39:54;6.22;;;2.83;;
52284;SDS011;38238;53.304;6.606;2022-07-17T13:42:20;3.72;;;2.33;;
52284;SDS011;38238;53.304;6.606;2022-07-17T13:44:46;4.43;;;2.00;;
52284;SDS011;38238;53.304;6.606;2022-07-17T13:47:12;4.35;;;2.58;;
52284;SDS011;38238;53.304;6.606;2022-07-17T13:49:37;4.40;;;2.50;;
52284;SDS011;38238;53.304;6.606;2022-07-17T13:52:04;4.50;;;2.47;;
52284;SDS011;38238;53.304;6.606;2022-07-17T13:54:30;4.97;;;2.28;;
52284;SDS011;38238;53.304;6.606;2022-07-17T13:56:56;4.13;;;2.40;;
52284;SDS011;38238;53.304;6.606;2022-07-17T13:59:22;5.30;;;2.55;;
52284;SDS011;38238;53.304;6.606;2022-07-17T14:01:47;4.95;;;2.25;;
52284;SDS011;38238;53.304;6.606;2022-07-17T14:04:13;4.45;;;2.58;;
52284;SDS011;38238;53.304;6.606;2022-07-17T14:06:39;5.78;;;2.65;;
52284;SDS011;38238;53.304;6.606;2022-07-17T14:09:05;4.68;;;2.70;;
52284;SDS011;38238;53.304;6.606;2022-07-17T14:11:30;4.05;;;2.70;;
52284;SDS011;38238;53.304;6.606;2022-07-17T14:13:56;4.88;;;2.70;;
52284;SDS011;38238;53.304;6.606;2022-07-17T14:16:22;4.22;;;2.35;;
52284;SDS011;38238;53.304;6.606;2022-07-17T14:18:48;5.20;;;2.65;;
52284;SDS011;38238;53.304;6.606;2022-07-17T14:21:30;4.35;;;2.72;;
52284;SDS011;38238;53.304;6.606;2022-07-17T14:23:58;4.43;;;2.50;;
52284;SDS011;38238;53.304;6.606;2022-07-17T14:26:25;6.80;;;2.83;;
52284;SDS011;38238;53.304;6.606;2022-07-17T14:28:51;4.40;;;2.60;;
52284;SDS011;38238;53.304;6.606;2022-07-17T14:31:17;3.78;;;2.30;;
52284;SDS011;38238;53.304;6.606;2022-07-17T14:33:43;3.90;;;2.60;;
52284;SDS011;38238;53.304;6.606;2022-07-17T14:36:09;5.68;;;2.50;;
52284;SDS011;38238;53.304;6.606;2022-07-17T14:38:36;4.28;;;2.30;;
52284;SDS011;38238;53.304;6.606;2022-07-17T14:41:02;4.88;;;2.70;;
52284;SDS011;38238;53.304;6.606;2022-07-17T14:43:27;4.38;;;2.38;;
52284;SDS011;38238;53.304;6.606;2022-07-17T14:45:54;6.45;;;2.75;;
52284;SDS011;38238;53.304;6.606;2022-07-17T14:48:20;7.57;;;2.70;;
52284;SDS011;38238;53.304;6.606;2022-07-17T14:50:46;5.22;;;3.05;;
52284;SDS011;38238;53.304;6.606;2022-07-17T14:53:12;5.57;;;2.83;;
52284;SDS011;38238;53.304;6.606;2022-07-17T14:55:37;4.43;;;2.70;;
52284;SDS011;38238;53.304;6.606;2022-07-17T14:58:03;5.65;;;2.70;;
52284;SDS011;38238;53.304;6.606;2022-07-17T15:00:29;5.25;;;2.80;;
52284;SDS011;38238;53.304;6.606;2022-07-17T15:02:55;6.07;;;3.10;;